Terminal Aerodrome Forecast
Issued by NWS Cleveland, OH

Home | Current Version | Previous Version | Text Only | Print | Product List | Glossary On
Versions: 1 2 3 4 5 6 7 8 9 10 11 12 13 14 15 16
000
FTUS41 KCLE 302300 RRA
TAFTOL
TAF
KTOL 302344Z 3100/3124 27010KT P6SM SCT080 OVC250
     FM310200 24005KT P6SM OVC080
     FM310400 VRB03KT 6SM -SHRA OVC045 WS020/25040KT
     FM310900 25010KT P6SM SCT045 OVC080
     FM311400 35010KT P6SM BKN045
     FM312100 33007KT P6SM SCT060=

USA.gov is the U.S. government's official web portal to all federal, state and local government web resources and services.